createdAt,value
2023-02-28T00:04:01.080Z,6.27
2023-02-28T00:09:04.634Z,2.77
2023-02-28T00:14:08.043Z,1.90
2023-02-28T00:19:14.629Z,7.20
2023-02-28T00:24:19.065Z,3.27
2023-02-28T00:29:22.314Z,4.07
2023-02-28T00:34:27.029Z,4.97
2023-02-28T00:39:31.493Z,8.33
2023-02-28T00:44:35.042Z,3.93
2023-02-28T00:49:39.833Z,3.67
2023-02-28T00:54:43.096Z,4.87
2023-02-28T00:59:46.330Z,4.67
2023-02-28T01:04:52.125Z,3.23
2023-02-28T01:09:55.443Z,4.33
2023-02-28T01:14:59.923Z,4.00
2023-02-28T01:20:05.092Z,4.23
2023-02-28T01:25:09.402Z,2.63
2023-02-28T01:30:16.034Z,3.27
2023-02-28T01:35:21.116Z,3.63
2023-02-28T01:40:25.412Z,3.60
2023-02-28T01:45:31.922Z,3.47
2023-02-28T01:50:42.870Z,5.13
2023-02-28T01:55:52.196Z,5.53
2023-02-28T02:00:55.528Z,4.33
2023-02-28T02:06:00.182Z,6.00
2023-02-28T02:11:05.920Z,4.63
2023-02-28T02:16:25.637Z,6.80
2023-02-28T02:22:11.842Z,3.33
2023-02-28T02:27:36.392Z,8.03
2023-02-28T02:33:18.816Z,4.63
2023-02-28T02:38:35.608Z,3.47
2023-02-28T02:43:52.084Z,4.67
2023-02-28T02:48:59.001Z,8.23
2023-02-28T02:54:08.181Z,2.60
2023-02-28T02:59:15.526Z,4.83
2023-02-28T03:04:21.448Z,2.83
2023-02-28T03:09:27.536Z,3.73
2023-02-28T03:14:53.956Z,5.20
2023-02-28T03:20:15.222Z,4.20
2023-02-28T03:25:29.280Z,3.70
2023-02-28T03:30:40.475Z,4.80
2023-02-28T03:35:47.631Z,4.07
2023-02-28T03:41:00.187Z,7.30
2023-02-28T03:46:07.156Z,5.13
2023-02-28T03:51:16.345Z,4.87
2023-02-28T03:56:23.846Z,4.70
2023-02-28T04:01:34.177Z,4.53
2023-02-28T04:06:40.389Z,3.07
2023-02-28T04:11:48.228Z,6.53
2023-02-28T04:16:52.039Z,3.80
2023-02-28T04:21:56.193Z,5.77
2023-02-28T04:27:05.763Z,3.83
2023-02-28T04:32:09.255Z,10.93
2023-02-28T04:37:14.452Z,4.47
2023-02-28T04:42:19.916Z,3.50
2023-02-28T04:47:24.408Z,6.37
2023-02-28T04:52:30.130Z,6.33
2023-02-28T04:57:34.824Z,6.33
2023-02-28T05:02:38.084Z,4.67
2023-02-28T05:07:41.429Z,6.43
2023-02-28T05:12:46.811Z,8.00
2023-02-28T05:17:50.232Z,5.07
2023-02-28T05:22:53.947Z,5.10
2023-02-28T05:27:58.666Z,7.57
2023-02-28T05:33:02.340Z,7.47
2023-02-28T05:38:05.712Z,6.20
2023-02-28T05:43:12.998Z,5.30
2023-02-28T05:48:20.621Z,9.03
2023-02-28T05:53:24.197Z,7.57
2023-02-28T05:58:33.377Z,4.13
2023-02-28T06:03:36.767Z,6.13
2023-02-28T06:08:40.184Z,6.23
2023-02-28T06:13:44.869Z,8.93
2023-02-28T06:18:48.143Z,9.27
2023-02-28T06:23:51.552Z,11.23
2023-02-28T06:28:56.768Z,7.60
2023-02-28T06:34:00.161Z,8.53
2023-02-28T06:39:03.464Z,16.90
2023-02-28T06:44:13.561Z,8.83
2023-02-28T06:49:19.352Z,11.97
2023-02-28T06:54:24.575Z,14.13
2023-02-28T06:59:29.146Z,8.57
2023-02-28T07:04:34.505Z,8.80
2023-02-28T07:09:37.930Z,7.50
2023-02-28T07:14:46.014Z,7.43
2023-02-28T07:19:49.411Z,9.00
2023-02-28T07:24:53.700Z,9.40
2023-02-28T07:29:58.491Z,9.03
2023-02-28T07:35:01.834Z,10.73
2023-02-28T07:40:09.529Z,14.70
2023-02-28T07:45:14.219Z,10.87
2023-02-28T07:50:19.915Z,9.63
2023-02-28T07:55:23.254Z,8.07
2023-02-28T08:00:28.167Z,10.53
2023-02-28T08:05:35.496Z,9.47
2023-02-28T08:10:39.094Z,12.37
2023-02-28T08:15:46.403Z,11.17
2023-02-28T08:20:49.955Z,9.60
2023-02-28T08:25:59.089Z,9.83
2023-02-28T08:31:09.156Z,10.80
2023-02-28T08:36:19.246Z,9.33
2023-02-28T08:41:25.574Z,9.63
2023-02-28T08:46:33.505Z,9.73
2023-02-28T08:51:36.857Z,11.07
2023-02-28T08:56:40.460Z,9.23
2023-02-28T09:01:46.186Z,12.60
2023-02-28T09:06:54.118Z,10.77
2023-02-28T09:11:58.110Z,14.93
2023-02-28T09:17:02.856Z,11.27
2023-02-28T09:22:06.257Z,12.47
2023-02-28T09:27:10.036Z,11.70
2023-02-28T09:32:16.449Z,12.77
2023-02-28T09:37:19.910Z,15.73
2023-02-28T09:42:27.653Z,12.13
2023-02-28T09:47:36.673Z,11.33
2023-02-28T09:52:40.505Z,16.47
2023-02-28T09:57:45.179Z,10.40
2023-02-28T10:03:18.910Z,14.57
2023-02-28T10:08:27.379Z,13.30
2023-02-28T10:13:38.831Z,43.03
2023-02-28T10:18:48.130Z,25.07
2023-02-28T10:23:54.053Z,18.37
2023-02-28T10:28:57.324Z,8.67
2023-02-28T10:34:05.378Z,10.47
2023-02-28T10:39:36.720Z,13.97
2023-02-28T10:44:40.016Z,69.50
2023-02-28T10:49:50.259Z,39.77
2023-02-28T10:55:16.145Z,23.83
2023-02-28T11:00:22.678Z,11.93
2023-02-28T11:05:30.446Z,12.93
2023-02-28T11:10:35.928Z,11.67
2023-02-28T11:15:43.794Z,10.40
2023-02-28T11:20:54.267Z,12.07
2023-02-28T11:26:00.383Z,13.40
2023-02-28T11:31:07.650Z,10.57
2023-02-28T11:36:16.805Z,9.67
2023-02-28T11:41:49.738Z,13.60
2023-02-28T11:46:56.888Z,11.70
2023-02-28T11:52:05.462Z,9.93
2023-02-28T11:57:22.747Z,17.47
2023-02-28T12:02:29.359Z,11.40
2023-02-28T12:07:42.524Z,14.63
2023-02-28T12:12:57.726Z,11.87
2023-02-28T12:18:21.048Z,10.27
2023-02-28T12:23:54.760Z,9.47
2023-02-28T12:29:04.454Z,11.17
2023-02-28T12:34:12.445Z,11.10
2023-02-28T12:39:23.040Z,9.50
2023-02-28T12:44:34.658Z,9.25
2023-02-28T12:49:44.802Z,12.68
2023-02-28T12:54:56.195Z,11.10
2023-02-28T13:00:02.488Z,14.48
2023-02-28T13:05:32.826Z,11.02
2023-02-28T13:10:49.803Z,11.52
2023-02-28T13:16:11.057Z,11.45
2023-02-28T13:21:29.040Z,11.55
2023-02-28T13:27:27.787Z,13.32
2023-02-28T13:32:39.766Z,11.57
2023-02-28T13:37:45.864Z,11.48
2023-02-28T13:42:53.563Z,11.55
2023-02-28T13:48:02.852Z,11.55
2023-02-28T13:53:52.844Z,10.60
2023-02-28T13:59:01.794Z,15.77
2023-02-28T14:04:47.036Z,9.60
2023-02-28T14:09:59.954Z,11.55
2023-02-28T14:15:03.496Z,11.75
2023-02-28T14:20:10.915Z,11.23
2023-02-28T14:25:26.415Z,13.40
2023-02-28T14:30:52.218Z,11.93
2023-02-28T14:36:09.218Z,14.95
2023-02-28T14:41:22.399Z,11.00
2023-02-28T14:46:31.688Z,11.52
2023-02-28T14:51:37.397Z,10.10
2023-02-28T14:56:42.618Z,13.25
2023-02-28T15:01:45.981Z,11.80
2023-02-28T15:07:11.320Z,10.75
2023-02-28T15:12:20.469Z,7.90
2023-02-28T15:17:27.450Z,11.00
2023-02-28T15:22:39.471Z,10.20
2023-02-28T15:27:50.326Z,8.65
2023-02-28T15:33:11.114Z,11.35
2023-02-28T15:38:19.613Z,13.27
2023-02-28T15:43:28.807Z,9.48
2023-02-28T15:48:37.097Z,12.90
2023-02-28T15:53:49.313Z,11.27
2023-02-28T15:58:56.461Z,9.38
2023-02-28T16:04:04.407Z,15.45
2023-02-28T16:09:12.042Z,11.70
2023-02-28T16:14:24.119Z,9.13
2023-02-28T16:19:27.878Z,12.90
2023-02-28T16:24:32.774Z,10.98
2023-02-28T16:29:42.275Z,12.02
2023-02-28T16:34:46.514Z,9.30
2023-02-28T16:39:51.068Z,11.90
2023-02-28T16:44:58.335Z,14.07
2023-02-28T16:50:02.317Z,11.57
2023-02-28T16:55:05.963Z,17.87
2023-02-28T17:00:18.170Z,14.03
2023-02-28T17:05:22.939Z,12.83
2023-02-28T17:10:28.783Z,12.43
2023-02-28T17:15:33.525Z,13.40
2023-02-28T17:20:51.910Z,15.10
2023-02-28T17:25:58.127Z,18.83
2023-02-28T17:31:03.151Z,14.83
2023-02-28T17:36:08.341Z,13.80
2023-02-28T17:41:13.126Z,19.07
2023-02-28T17:46:21.596Z,16.47
2023-02-28T17:51:28.336Z,13.77
2023-02-28T17:56:31.832Z,12.67
2023-02-28T18:01:36.822Z,20.07
2023-02-28T18:06:47.569Z,17.37
2023-02-28T18:11:51.195Z,14.93
2023-02-28T18:16:57.656Z,12.80
2023-02-28T18:22:01.053Z,11.93
2023-02-28T18:27:04.752Z,16.97
2023-02-28T18:32:10.087Z,12.93
2023-02-28T18:37:13.610Z,17.40
2023-02-28T18:42:19.367Z,14.13
2023-02-28T18:47:24.183Z,17.53
2023-02-28T18:52:27.531Z,15.73
2023-02-28T18:57:36.567Z,15.83
2023-02-28T19:02:42.864Z,15.10
2023-02-28T19:07:48.388Z,23.20
2023-02-28T19:12:59.091Z,12.83
2023-02-28T19:18:03.974Z,18.47
2023-02-28T19:23:09.461Z,12.00
2023-02-28T19:28:13.239Z,17.43
2023-02-28T19:33:18.254Z,16.93
2023-02-28T19:38:21.763Z,17.90
2023-02-28T19:43:26.918Z,14.30
2023-02-28T19:48:31.643Z,15.73
2023-02-28T19:53:36.421Z,16.87
2023-02-28T19:58:40.350Z,16.50
2023-02-28T20:03:49.686Z,19.80
2023-02-28T20:08:58.534Z,18.67
2023-02-28T20:14:05.923Z,19.30
2023-02-28T20:19:10.816Z,16.57
2023-02-28T20:24:14.272Z,19.37
2023-02-28T20:29:17.675Z,18.90
2023-02-28T20:34:26.330Z,17.33
2023-02-28T20:39:31.192Z,18.17
2023-02-28T20:44:34.455Z,18.80
2023-02-28T20:49:39.153Z,16.07
2023-02-28T20:54:42.520Z,17.63
2023-02-28T20:59:48.144Z,17.90
2023-02-28T21:04:57.724Z,17.40
2023-02-28T21:10:02.018Z,17.37
2023-02-28T21:15:06.976Z,21.10
2023-02-28T21:20:13.235Z,21.53
2023-02-28T21:25:16.977Z,24.37
2023-02-28T21:30:21.536Z,21.73
2023-02-28T21:35:26.325Z,17.30
2023-02-28T21:40:29.994Z,20.70
2023-02-28T21:45:35.746Z,21.93
2023-02-28T21:50:40.504Z,22.90
2023-02-28T21:55:44.756Z,20.33
2023-02-28T22:00:48.087Z,21.83
2023-02-28T22:05:52.853Z,23.47
2023-02-28T22:10:56.214Z,22.43
2023-02-28T22:16:03.769Z,20.87
2023-02-28T22:21:09.402Z,21.93
2023-02-28T22:26:14.947Z,25.30
2023-02-28T22:31:20.449Z,21.67
2023-02-28T22:36:25.351Z,18.30
2023-02-28T22:41:29.192Z,19.37
2023-02-28T22:46:34.797Z,20.53
2023-02-28T22:51:39.692Z,21.63
2023-02-28T22:56:43.368Z,20.40
2023-02-28T23:01:46.902Z,20.33
2023-02-28T23:06:55.986Z,26.77
2023-02-28T23:11:59.302Z,21.97
2023-02-28T23:17:02.897Z,24.17
2023-02-28T23:22:07.800Z,24.30
2023-02-28T23:27:14.184Z,29.37
2023-02-28T23:32:17.662Z,19.73
2023-02-28T23:37:22.450Z,21.23
2023-02-28T23:42:26.942Z,25.30
2023-02-28T23:47:32.626Z,21.37
2023-02-28T23:52:37.476Z,23.10
2023-02-28T23:57:40.936Z,22.23
